sensor_id;sensor_type;location;lat;lon;timestamp;P1;durP1;ratioP1;P2;durP2;ratioP2
33824;SDS011;20127;48.962;8.342;2024-02-28T00:00:08;24.65;;;20.30;;
33824;SDS011;20127;48.962;8.342;2024-02-28T00:01:23;32.65;;;22.08;;
33824;SDS011;20127;48.962;8.342;2024-02-28T00:02:38;27.85;;;23.08;;
33824;SDS011;20127;48.962;8.342;2024-02-28T00:03:51;25.88;;;21.60;;
33824;SDS011;20127;48.962;8.342;2024-02-28T00:05:06;40.33;;;23.65;;
33824;SDS011;20127;48.962;8.342;2024-02-28T00:06:20;27.75;;;22.20;;
33824;SDS011;20127;48.962;8.342;2024-02-28T00:07:34;25.63;;;20.83;;
33824;SDS011;20127;48.962;8.342;2024-02-28T00:08:49;25.38;;;20.55;;
33824;SDS011;20127;48.962;8.342;2024-02-28T00:10:06;27.52;;;21.15;;
33824;SDS011;20127;48.962;8.342;2024-02-28T00:11:20;28.15;;;22.52;;
33824;SDS011;20127;48.962;8.342;2024-02-28T00:12:34;28.05;;;21.63;;
33824;SDS011;20127;48.962;8.342;2024-02-28T00:13:48;26.77;;;21.90;;
33824;SDS011;20127;48.962;8.342;2024-02-28T00:15:04;31.63;;;22.67;;
33824;SDS011;20127;48.962;8.342;2024-02-28T00:16:18;30.90;;;21.55;;
33824;SDS011;20127;48.962;8.342;2024-02-28T00:17:32;29.08;;;23.27;;
33824;SDS011;20127;48.962;8.342;2024-02-28T00:18:46;27.40;;;20.40;;
33824;SDS011;20127;48.962;8.342;2024-02-28T00:20:00;47.55;;;27.60;;
33824;SDS011;20127;48.962;8.342;2024-02-28T00:21:14;28.98;;;20.80;;
33824;SDS011;20127;48.962;8.342;2024-02-28T00:22:28;30.58;;;22.65;;
33824;SDS011;20127;48.962;8.342;2024-02-28T00:23:41;29.10;;;22.13;;
33824;SDS011;20127;48.962;8.342;2024-02-28T00:24:57;28.88;;;21.75;;
33824;SDS011;20127;48.962;8.342;2024-02-28T00:26:11;28.40;;;21.13;;
33824;SDS011;20127;48.962;8.342;2024-02-28T00:27:26;25.83;;;21.45;;
33824;SDS011;20127;48.962;8.342;2024-02-28T00:28:39;28.52;;;21.98;;
33824;SDS011;20127;48.962;8.342;2024-02-28T00:29:53;29.00;;;23.02;;
33824;SDS011;20127;48.962;8.342;2024-02-28T00:31:07;29.00;;;21.85;;
33824;SDS011;20127;48.962;8.342;2024-02-28T00:32:21;29.27;;;23.00;;
33824;SDS011;20127;48.962;8.342;2024-02-28T00:33:35;35.20;;;23.65;;
33824;SDS011;20127;48.962;8.342;2024-02-28T00:34:49;27.55;;;22.38;;
33824;SDS011;20127;48.962;8.342;2024-02-28T00:36:03;31.45;;;23.00;;
33824;SDS011;20127;48.962;8.342;2024-02-28T00:37:18;36.55;;;24.52;;
33824;SDS011;20127;48.962;8.342;2024-02-28T00:38:31;32.22;;;25.33;;
33824;SDS011;20127;48.962;8.342;2024-02-28T00:39:46;31.52;;;22.58;;
33824;SDS011;20127;48.962;8.342;2024-02-28T00:41:00;32.80;;;24.77;;
33824;SDS011;20127;48.962;8.342;2024-02-28T00:42:15;28.52;;;23.77;;
33824;SDS011;20127;48.962;8.342;2024-02-28T00:43:28;29.38;;;24.33;;
33824;SDS011;20127;48.962;8.342;2024-02-28T00:44:43;31.42;;;23.17;;
33824;SDS011;20127;48.962;8.342;2024-02-28T00:45:58;32.42;;;24.08;;
33824;SDS011;20127;48.962;8.342;2024-02-28T00:47:13;30.67;;;22.77;;
33824;SDS011;20127;48.962;8.342;2024-02-28T00:48:26;29.42;;;22.25;;
33824;SDS011;20127;48.962;8.342;2024-02-28T00:49:41;28.15;;;22.50;;
33824;SDS011;20127;48.962;8.342;2024-02-28T00:50:54;26.98;;;20.90;;
33824;SDS011;20127;48.962;8.342;2024-02-28T00:52:09;30.92;;;21.23;;
33824;SDS011;20127;48.962;8.342;2024-02-28T00:53:22;32.95;;;23.40;;
33824;SDS011;20127;48.962;8.342;2024-02-28T00:54:37;28.35;;;22.42;;
33824;SDS011;20127;48.962;8.342;2024-02-28T00:55:50;30.17;;;24.40;;
33824;SDS011;20127;48.962;8.342;2024-02-28T00:57:06;27.65;;;23.17;;
33824;SDS011;20127;48.962;8.342;2024-02-28T00:58:19;27.38;;;23.25;;
33824;SDS011;20127;48.962;8.342;2024-02-28T00:59:34;28.73;;;21.27;;
33824;SDS011;20127;48.962;8.342;2024-02-28T01:00:47;33.95;;;22.02;;
33824;SDS011;20127;48.962;8.342;2024-02-28T01:02:02;30.67;;;23.23;;
33824;SDS011;20127;48.962;8.342;2024-02-28T01:03:16;28.48;;;22.13;;
33824;SDS011;20127;48.962;8.342;2024-02-28T01:04:31;34.22;;;23.92;;
33824;SDS011;20127;48.962;8.342;2024-02-28T01:05:45;27.92;;;22.02;;
33824;SDS011;20127;48.962;8.342;2024-02-28T01:06:59;28.88;;;23.13;;
33824;SDS011;20127;48.962;8.342;2024-02-28T01:08:13;32.25;;;22.10;;
33824;SDS011;20127;48.962;8.342;2024-02-28T01:09:30;30.13;;;22.80;;
33824;SDS011;20127;48.962;8.342;2024-02-28T01:10:43;37.47;;;26.52;;
33824;SDS011;20127;48.962;8.342;2024-02-28T01:11:58;31.10;;;24.88;;
33824;SDS011;20127;48.962;8.342;2024-02-28T01:13:13;33.35;;;26.15;;
33824;SDS011;20127;48.962;8.342;2024-02-28T01:14:27;32.92;;;22.85;;
33824;SDS011;20127;48.962;8.342;2024-02-28T01:15:41;33.97;;;25.02;;
33824;SDS011;20127;48.962;8.342;2024-02-28T01:16:55;32.65;;;25.05;;
33824;SDS011;20127;48.962;8.342;2024-02-28T01:18:09;36.22;;;23.98;;
33824;SDS011;20127;48.962;8.342;2024-02-28T01:19:23;28.10;;;22.00;;
33824;SDS011;20127;48.962;8.342;2024-02-28T01:20:37;35.60;;;21.85;;
33824;SDS011;20127;48.962;8.342;2024-02-28T01:21:51;32.42;;;22.10;;
33824;SDS011;20127;48.962;8.342;2024-02-28T01:23:05;26.58;;;22.17;;
33824;SDS011;20127;48.962;8.342;2024-02-28T01:24:19;31.38;;;23.77;;
33824;SDS011;20127;48.962;8.342;2024-02-28T01:25:32;31.88;;;25.15;;
33824;SDS011;20127;48.962;8.342;2024-02-28T01:26:47;28.05;;;22.10;;
33824;SDS011;20127;48.962;8.342;2024-02-28T01:28:01;33.80;;;24.80;;
33824;SDS011;20127;48.962;8.342;2024-02-28T01:29:16;36.15;;;25.70;;
33824;SDS011;20127;48.962;8.342;2024-02-28T01:30:30;32.22;;;23.10;;
33824;SDS011;20127;48.962;8.342;2024-02-28T01:31:44;36.97;;;22.88;;
33824;SDS011;20127;48.962;8.342;2024-02-28T01:32:58;29.88;;;21.88;;
33824;SDS011;20127;48.962;8.342;2024-02-28T01:34:12;30.73;;;21.83;;
33824;SDS011;20127;48.962;8.342;2024-02-28T01:35:26;31.77;;;22.90;;
33824;SDS011;20127;48.962;8.342;2024-02-28T01:36:40;31.67;;;23.00;;
33824;SDS011;20127;48.962;8.342;2024-02-28T01:37:54;31.77;;;23.83;;
33824;SDS011;20127;48.962;8.342;2024-02-28T01:39:14;32.47;;;22.58;;
33824;SDS011;20127;48.962;8.342;2024-02-28T01:40:27;32.28;;;23.13;;
33824;SDS011;20127;48.962;8.342;2024-02-28T01:41:49;32.90;;;25.38;;
33824;SDS011;20127;48.962;8.342;2024-02-28T01:43:04;34.53;;;24.48;;
33824;SDS011;20127;48.962;8.342;2024-02-28T01:44:20;36.33;;;24.65;;
33824;SDS011;20127;48.962;8.342;2024-02-28T01:45:33;36.53;;;24.35;;
33824;SDS011;20127;48.962;8.342;2024-02-28T01:46:48;33.45;;;22.33;;
33824;SDS011;20127;48.962;8.342;2024-02-28T01:48:02;31.55;;;24.05;;
33824;SDS011;20127;48.962;8.342;2024-02-28T01:49:18;36.10;;;21.70;;
33824;SDS011;20127;48.962;8.342;2024-02-28T01:50:31;32.75;;;23.55;;
33824;SDS011;20127;48.962;8.342;2024-02-28T01:51:46;31.33;;;23.55;;
33824;SDS011;20127;48.962;8.342;2024-02-28T01:53:00;33.50;;;23.70;;
33824;SDS011;20127;48.962;8.342;2024-02-28T01:54:15;30.35;;;22.38;;
33824;SDS011;20127;48.962;8.342;2024-02-28T01:55:29;36.00;;;24.10;;
33824;SDS011;20127;48.962;8.342;2024-02-28T01:56:44;32.17;;;23.65;;
33824;SDS011;20127;48.962;8.342;2024-02-28T01:57:58;30.30;;;20.90;;
33824;SDS011;20127;48.962;8.342;2024-02-28T01:59:12;35.45;;;23.08;;
33824;SDS011;20127;48.962;8.342;2024-02-28T02:00:27;32.10;;;23.13;;
33824;SDS011;20127;48.962;8.342;2024-02-28T02:01:42;35.78;;;24.52;;
33824;SDS011;20127;48.962;8.342;2024-02-28T02:02:55;33.88;;;24.27;;
33824;SDS011;20127;48.962;8.342;2024-02-28T02:04:10;36.72;;;24.63;;
33824;SDS011;20127;48.962;8.342;2024-02-28T02:05:23;29.55;;;22.15;;
33824;SDS011;20127;48.962;8.342;2024-02-28T02:06:38;31.63;;;25.55;;
33824;SDS011;20127;48.962;8.342;2024-02-28T02:07:55;32.38;;;21.58;;
33824;SDS011;20127;48.962;8.342;2024-02-28T02:09:11;32.60;;;25.33;;
33824;SDS011;20127;48.962;8.342;2024-02-28T02:10:24;31.80;;;22.85;;
33824;SDS011;20127;48.962;8.342;2024-02-28T02:11:39;36.20;;;23.08;;
33824;SDS011;20127;48.962;8.342;2024-02-28T02:12:53;32.83;;;22.40;;
33824;SDS011;20127;48.962;8.342;2024-02-28T02:14:07;33.47;;;24.00;;
33824;SDS011;20127;48.962;8.342;2024-02-28T02:15:21;32.67;;;23.35;;
33824;SDS011;20127;48.962;8.342;2024-02-28T02:16:36;36.53;;;24.90;;
33824;SDS011;20127;48.962;8.342;2024-02-28T02:17:50;29.17;;;22.17;;
33824;SDS011;20127;48.962;8.342;2024-02-28T02:19:04;35.72;;;22.88;;
33824;SDS011;20127;48.962;8.342;2024-02-28T02:20:18;33.22;;;23.08;;
33824;SDS011;20127;48.962;8.342;2024-02-28T02:21:34;33.58;;;21.95;;
33824;SDS011;20127;48.962;8.342;2024-02-28T02:22:49;29.85;;;22.25;;
33824;SDS011;20127;48.962;8.342;2024-02-28T02:24:04;33.03;;;23.27;;
33824;SDS011;20127;48.962;8.342;2024-02-28T02:25:18;31.02;;;22.52;;
33824;SDS011;20127;48.962;8.342;2024-02-28T02:26:32;33.38;;;23.63;;
33824;SDS011;20127;48.962;8.342;2024-02-28T02:27:46;34.08;;;23.73;;
33824;SDS011;20127;48.962;8.342;2024-02-28T02:29:00;35.63;;;24.05;;
33824;SDS011;20127;48.962;8.342;2024-02-28T02:30:13;37.25;;;23.08;;
33824;SDS011;20127;48.962;8.342;2024-02-28T02:31:28;33.58;;;23.15;;
33824;SDS011;20127;48.962;8.342;2024-02-28T02:32:41;30.65;;;22.30;;
33824;SDS011;20127;48.962;8.342;2024-02-28T02:33:56;29.75;;;22.95;;
33824;SDS011;20127;48.962;8.342;2024-02-28T02:35:09;29.48;;;22.52;;
33824;SDS011;20127;48.962;8.342;2024-02-28T02:36:24;33.00;;;24.65;;
33824;SDS011;20127;48.962;8.342;2024-02-28T02:37:37;31.60;;;23.05;;
33824;SDS011;20127;48.962;8.342;2024-02-28T02:38:53;32.30;;;22.52;;
33824;SDS011;20127;48.962;8.342;2024-02-28T02:40:07;33.45;;;22.88;;
33824;SDS011;20127;48.962;8.342;2024-02-28T02:41:23;37.10;;;23.08;;
33824;SDS011;20127;48.962;8.342;2024-02-28T02:42:36;36.33;;;23.42;;
33824;SDS011;20127;48.962;8.342;2024-02-28T02:43:51;35.15;;;24.77;;
33824;SDS011;20127;48.962;8.342;2024-02-28T02:45:05;36.50;;;24.30;;
33824;SDS011;20127;48.962;8.342;2024-02-28T02:46:19;32.83;;;24.67;;
33824;SDS011;20127;48.962;8.342;2024-02-28T02:47:33;35.03;;;23.30;;
33824;SDS011;20127;48.962;8.342;2024-02-28T02:48:48;38.63;;;25.60;;
33824;SDS011;20127;48.962;8.342;2024-02-28T02:50:01;31.92;;;23.25;;
33824;SDS011;20127;48.962;8.342;2024-02-28T02:51:16;40.90;;;25.45;;
33824;SDS011;20127;48.962;8.342;2024-02-28T02:52:31;35.30;;;23.80;;
33824;SDS011;20127;48.962;8.342;2024-02-28T02:53:45;32.58;;;21.98;;
33824;SDS011;20127;48.962;8.342;2024-02-28T02:55:01;33.38;;;23.75;;
33824;SDS011;20127;48.962;8.342;2024-02-28T02:56:14;32.58;;;24.05;;
33824;SDS011;20127;48.962;8.342;2024-02-28T02:57:29;30.95;;;24.33;;
33824;SDS011;20127;48.962;8.342;2024-02-28T02:58:43;37.70;;;24.83;;
33824;SDS011;20127;48.962;8.342;2024-02-28T02:59:58;35.35;;;22.90;;
33824;SDS011;20127;48.962;8.342;2024-02-28T03:01:11;40.25;;;24.08;;
33824;SDS011;20127;48.962;8.342;2024-02-28T03:02:25;34.72;;;26.20;;
33824;SDS011;20127;48.962;8.342;2024-02-28T03:03:39;33.03;;;23.98;;
33824;SDS011;20127;48.962;8.342;2024-02-28T03:04:53;38.92;;;25.55;;
33824;SDS011;20127;48.962;8.342;2024-02-28T03:06:07;35.72;;;24.27;;
33824;SDS011;20127;48.962;8.342;2024-02-28T03:07:22;36.47;;;25.67;;
33824;SDS011;20127;48.962;8.342;2024-02-28T03:08:36;35.25;;;25.63;;
33824;SDS011;20127;48.962;8.342;2024-02-28T03:09:50;36.47;;;24.38;;
33824;SDS011;20127;48.962;8.342;2024-02-28T03:11:05;38.40;;;28.27;;
33824;SDS011;20127;48.962;8.342;2024-02-28T03:12:21;33.10;;;23.55;;
33824;SDS011;20127;48.962;8.342;2024-02-28T03:13:35;42.83;;;25.95;;
33824;SDS011;20127;48.962;8.342;2024-02-28T03:14:49;36.05;;;23.10;;
33824;SDS011;20127;48.962;8.342;2024-02-28T03:16:03;39.03;;;26.02;;
33824;SDS011;20127;48.962;8.342;2024-02-28T03:17:17;38.63;;;28.17;;
33824;SDS011;20127;48.962;8.342;2024-02-28T03:18:31;33.40;;;24.05;;
33824;SDS011;20127;48.962;8.342;2024-02-28T03:19:45;39.60;;;26.95;;
33824;SDS011;20127;48.962;8.342;2024-02-28T03:20:59;37.10;;;26.63;;
33824;SDS011;20127;48.962;8.342;2024-02-28T03:22:13;37.35;;;24.38;;
33824;SDS011;20127;48.962;8.342;2024-02-28T03:23:27;36.38;;;24.38;;
33824;SDS011;20127;48.962;8.342;2024-02-28T03:24:41;33.95;;;24.13;;
33824;SDS011;20127;48.962;8.342;2024-02-28T03:25:55;28.40;;;21.73;;
33824;SDS011;20127;48.962;8.342;2024-02-28T03:27:10;35.42;;;24.92;;
33824;SDS011;20127;48.962;8.342;2024-02-28T03:28:24;31.25;;;23.10;;
33824;SDS011;20127;48.962;8.342;2024-02-28T03:29:38;33.80;;;24.63;;
33824;SDS011;20127;48.962;8.342;2024-02-28T03:30:52;33.72;;;24.70;;
33824;SDS011;20127;48.962;8.342;2024-02-28T03:32:06;27.35;;;22.58;;
33824;SDS011;20127;48.962;8.342;2024-02-28T03:33:20;30.33;;;21.75;;
33824;SDS011;20127;48.962;8.342;2024-02-28T03:34:35;32.22;;;21.90;;
33824;SDS011;20127;48.962;8.342;2024-02-28T03:35:48;31.65;;;21.88;;
33824;SDS011;20127;48.962;8.342;2024-02-28T03:37:03;28.83;;;19.85;;
33824;SDS011;20127;48.962;8.342;2024-02-28T03:38:16;34.20;;;23.58;;
33824;SDS011;20127;48.962;8.342;2024-02-28T03:39:31;30.23;;;21.75;;
33824;SDS011;20127;48.962;8.342;2024-02-28T03:40:44;30.08;;;22.60;;
33824;SDS011;20127;48.962;8.342;2024-02-28T03:41:58;35.17;;;24.02;;
33824;SDS011;20127;48.962;8.342;2024-02-28T03:43:13;33.63;;;22.60;;
33824;SDS011;20127;48.962;8.342;2024-02-28T03:44:28;24.55;;;18.70;;
33824;SDS011;20127;48.962;8.342;2024-02-28T03:45:41;31.52;;;21.67;;
33824;SDS011;20127;48.962;8.342;2024-02-28T03:46:56;28.70;;;21.30;;
33824;SDS011;20127;48.962;8.342;2024-02-28T03:48:09;31.88;;;22.08;;
33824;SDS011;20127;48.962;8.342;2024-02-28T03:49:23;41.17;;;27.13;;
33824;SDS011;20127;48.962;8.342;2024-02-28T03:50:37;34.35;;;22.05;;
33824;SDS011;20127;48.962;8.342;2024-02-28T03:51:51;42.20;;;29.10;;
33824;SDS011;20127;48.962;8.342;2024-02-28T03:53:05;45.28;;;30.17;;
33824;SDS011;20127;48.962;8.342;2024-02-28T03:54:19;41.40;;;29.20;;
33824;SDS011;20127;48.962;8.342;2024-02-28T03:55:32;37.97;;;26.00;;
33824;SDS011;20127;48.962;8.342;2024-02-28T03:56:47;43.17;;;30.98;;
33824;SDS011;20127;48.962;8.342;2024-02-28T03:58:00;44.88;;;28.25;;
33824;SDS011;20127;48.962;8.342;2024-02-28T03:59:17;44.78;;;29.73;;
33824;SDS011;20127;48.962;8.342;2024-02-28T04:00:30;38.85;;;27.73;;
33824;SDS011;20127;48.962;8.342;2024-02-28T04:01:45;44.03;;;27.67;;
33824;SDS011;20127;48.962;8.342;2024-02-28T04:02:58;42.78;;;30.88;;
33824;SDS011;20127;48.962;8.342;2024-02-28T04:04:13;44.47;;;30.75;;
33824;SDS011;20127;48.962;8.342;2024-02-28T04:05:26;46.42;;;31.08;;
33824;SDS011;20127;48.962;8.342;2024-02-28T04:06:40;45.83;;;28.40;;
33824;SDS011;20127;48.962;8.342;2024-02-28T04:07:54;44.38;;;28.25;;
33824;SDS011;20127;48.962;8.342;2024-02-28T04:09:08;45.20;;;28.58;;
33824;SDS011;20127;48.962;8.342;2024-02-28T04:10:22;49.83;;;35.15;;
33824;SDS011;20127;48.962;8.342;2024-02-28T04:11:37;50.88;;;34.05;;
33824;SDS011;20127;48.962;8.342;2024-02-28T04:12:51;41.25;;;30.98;;
33824;SDS011;20127;48.962;8.342;2024-02-28T04:14:05;48.53;;;33.45;;
33824;SDS011;20127;48.962;8.342;2024-02-28T04:15:20;53.03;;;32.25;;
33824;SDS011;20127;48.962;8.342;2024-02-28T04:16:34;46.50;;;32.35;;
33824;SDS011;20127;48.962;8.342;2024-02-28T04:17:48;51.10;;;29.80;;
33824;SDS011;20127;48.962;8.342;2024-02-28T04:19:02;52.38;;;35.03;;
33824;SDS011;20127;48.962;8.342;2024-02-28T04:20:16;52.03;;;33.80;;
33824;SDS011;20127;48.962;8.342;2024-02-28T04:21:30;52.70;;;34.03;;
33824;SDS011;20127;48.962;8.342;2024-02-28T04:22:44;59.45;;;38.17;;
33824;SDS011;20127;48.962;8.342;2024-02-28T04:23:58;52.28;;;33.92;;
33824;SDS011;20127;48.962;8.342;2024-02-28T04:25:11;50.40;;;35.65;;
33824;SDS011;20127;48.962;8.342;2024-02-28T04:26:26;58.15;;;36.08;;
33824;SDS011;20127;48.962;8.342;2024-02-28T04:27:39;58.72;;;38.08;;
33824;SDS011;20127;48.962;8.342;2024-02-28T04:28:54;62.83;;;37.42;;
33824;SDS011;20127;48.962;8.342;2024-02-28T04:30:07;54.15;;;37.00;;
33824;SDS011;20127;48.962;8.342;2024-02-28T04:31:23;59.10;;;38.17;;
33824;SDS011;20127;48.962;8.342;2024-02-28T04:32:37;58.53;;;36.17;;
33824;SDS011;20127;48.962;8.342;2024-02-28T04:33:51;57.38;;;37.13;;
33824;SDS011;20127;48.962;8.342;2024-02-28T04:35:05;52.55;;;35.53;;
33824;SDS011;20127;48.962;8.342;2024-02-28T04:36:19;61.88;;;40.53;;
33824;SDS011;20127;48.962;8.342;2024-02-28T04:37:34;55.75;;;37.65;;
33824;SDS011;20127;48.962;8.342;2024-02-28T04:38:47;61.40;;;37.85;;
33824;SDS011;20127;48.962;8.342;2024-02-28T04:40:02;52.83;;;35.47;;
33824;SDS011;20127;48.962;8.342;2024-02-28T04:41:16;56.03;;;35.67;;
33824;SDS011;20127;48.962;8.342;2024-02-28T04:42:30;55.17;;;35.67;;
33824;SDS011;20127;48.962;8.342;2024-02-28T04:43:43;58.78;;;38.47;;
33824;SDS011;20127;48.962;8.342;2024-02-28T04:44:58;57.97;;;35.72;;
33824;SDS011;20127;48.962;8.342;2024-02-28T04:46:12;51.25;;;34.72;;
33824;SDS011;20127;48.962;8.342;2024-02-28T04:47:27;55.45;;;36.85;;
33824;SDS011;20127;48.962;8.342;2024-02-28T04:48:41;55.63;;;38.03;;
33824;SDS011;20127;48.962;8.342;2024-02-28T04:49:56;54.15;;;37.15;;
33824;SDS011;20127;48.962;8.342;2024-02-28T04:51:09;49.20;;;34.08;;
33824;SDS011;20127;48.962;8.342;2024-02-28T04:52:23;47.13;;;33.08;;
33824;SDS011;20127;48.962;8.342;2024-02-28T04:53:38;49.33;;;32.92;;
33824;SDS011;20127;48.962;8.342;2024-02-28T04:54:53;47.75;;;32.17;;
33824;SDS011;20127;48.962;8.342;2024-02-28T04:56:06;48.05;;;32.42;;
33824;SDS011;20127;48.962;8.342;2024-02-28T04:57:21;46.17;;;29.45;;
33824;SDS011;20127;48.962;8.342;2024-02-28T04:58:35;50.08;;;33.08;;
33824;SDS011;20127;48.962;8.342;2024-02-28T04:59:49;50.40;;;32.42;;
33824;SDS011;20127;48.962;8.342;2024-02-28T05:01:03;46.42;;;30.67;;
33824;SDS011;20127;48.962;8.342;2024-02-28T05:02:17;43.30;;;29.65;;
33824;SDS011;20127;48.962;8.342;2024-02-28T05:03:32;50.33;;;32.13;;
33824;SDS011;20127;48.962;8.342;2024-02-28T05:04:47;52.30;;;32.25;;
33824;SDS011;20127;48.962;8.342;2024-02-28T05:06:00;52.35;;;33.42;;
33824;SDS011;20127;48.962;8.342;2024-02-28T05:07:15;49.75;;;31.83;;
33824;SDS011;20127;48.962;8.342;2024-02-28T05:08:29;48.78;;;33.75;;
33824;SDS011;20127;48.962;8.342;2024-02-28T05:09:43;47.05;;;32.28;;
33824;SDS011;20127;48.962;8.342;2024-02-28T05:10:57;58.85;;;34.35;;
33824;SDS011;20127;48.962;8.342;2024-02-28T05:12:11;53.40;;;34.25;;
33824;SDS011;20127;48.962;8.342;2024-02-28T05:13:25;54.42;;;35.83;;
33824;SDS011;20127;48.962;8.342;2024-02-28T05:14:39;50.83;;;34.70;;
33824;SDS011;20127;48.962;8.342;2024-02-28T05:15:53;54.78;;;32.75;;
33824;SDS011;20127;48.962;8.342;2024-02-28T05:17:07;46.83;;;31.83;;
33824;SDS011;20127;48.962;8.342;2024-02-28T05:18:21;52.28;;;31.90;;
33824;SDS011;20127;48.962;8.342;2024-02-28T05:19:36;51.67;;;33.88;;
33824;SDS011;20127;48.962;8.342;2024-02-28T05:20:50;45.45;;;29.30;;
33824;SDS011;20127;48.962;8.342;2024-02-28T05:22:05;52.67;;;32.60;;
33824;SDS011;20127;48.962;8.342;2024-02-28T05:23:18;48.40;;;32.35;;
33824;SDS011;20127;48.962;8.342;2024-02-28T05:24:32;55.17;;;33.45;;
33824;SDS011;20127;48.962;8.342;2024-02-28T05:25:46;44.15;;;30.58;;
33824;SDS011;20127;48.962;8.342;2024-02-28T05:27:00;47.60;;;31.38;;
33824;SDS011;20127;48.962;8.342;2024-02-28T05:28:14;51.33;;;33.17;;
33824;SDS011;20127;48.962;8.342;2024-02-28T05:29:28;46.13;;;34.17;;
33824;SDS011;20127;48.962;8.342;2024-02-28T05:30:42;46.65;;;31.95;;
33824;SDS011;20127;48.962;8.342;2024-02-28T05:31:56;53.50;;;33.63;;
33824;SDS011;20127;48.962;8.342;2024-02-28T05:33:10;52.92;;;34.97;;
33824;SDS011;20127;48.962;8.342;2024-02-28T05:34:24;54.00;;;35.90;;
33824;SDS011;20127;48.962;8.342;2024-02-28T05:35:39;54.95;;;34.70;;
33824;SDS011;20127;48.962;8.342;2024-02-28T05:36:53;57.50;;;33.45;;
33824;SDS011;20127;48.962;8.342;2024-02-28T05:38:07;58.88;;;38.65;;
33824;SDS011;20127;48.962;8.342;2024-02-28T05:39:21;56.03;;;37.20;;
33824;SDS011;20127;48.962;8.342;2024-02-28T05:40:35;56.17;;;36.70;;
33824;SDS011;20127;48.962;8.342;2024-02-28T05:41:49;54.55;;;34.40;;
33824;SDS011;20127;48.962;8.342;2024-02-28T05:43:03;51.55;;;34.42;;
33824;SDS011;20127;48.962;8.342;2024-02-28T05:44:18;52.75;;;35.20;;
33824;SDS011;20127;48.962;8.342;2024-02-28T05:45:31;61.72;;;39.45;;
33824;SDS011;20127;48.962;8.342;2024-02-28T05:46:45;55.22;;;37.08;;
33824;SDS011;20127;48.962;8.342;2024-02-28T05:47:59;62.90;;;35.63;;
33824;SDS011;20127;48.962;8.342;2024-02-28T05:49:13;59.38;;;37.03;;
33824;SDS011;20127;48.962;8.342;2024-02-28T05:50:27;57.15;;;37.00;;
33824;SDS011;20127;48.962;8.342;2024-02-28T05:51:44;56.75;;;35.85;;
33824;SDS011;20127;48.962;8.342;2024-02-28T05:52:57;53.22;;;35.28;;
33824;SDS011;20127;48.962;8.342;2024-02-28T05:54:12;61.45;;;39.17;;
33824;SDS011;20127;48.962;8.342;2024-02-28T05:55:25;61.33;;;38.15;;
33824;SDS011;20127;48.962;8.342;2024-02-28T05:56:41;57.80;;;40.75;;
33824;SDS011;20127;48.962;8.342;2024-02-28T05:57:54;58.92;;;39.95;;
33824;SDS011;20127;48.962;8.342;2024-02-28T05:59:09;58.28;;;38.67;;
33824;SDS011;20127;48.962;8.342;2024-02-28T06:00:22;58.47;;;36.63;;
33824;SDS011;20127;48.962;8.342;2024-02-28T06:01:36;57.70;;;39.42;;
33824;SDS011;20127;48.962;8.342;2024-02-28T06:02:51;62.88;;;37.75;;
33824;SDS011;20127;48.962;8.342;2024-02-28T06:04:05;57.72;;;36.05;;
33824;SDS011;20127;48.962;8.342;2024-02-28T06:05:19;58.08;;;40.17;;
33824;SDS011;20127;48.962;8.342;2024-02-28T06:06:33;56.97;;;36.38;;
33824;SDS011;20127;48.962;8.342;2024-02-28T06:07:48;56.20;;;37.25;;
33824;SDS011;20127;48.962;8.342;2024-02-28T06:09:03;66.03;;;40.88;;
33824;SDS011;20127;48.962;8.342;2024-02-28T06:10:16;65.93;;;40.08;;
33824;SDS011;20127;48.962;8.342;2024-02-28T06:11:31;63.80;;;39.65;;
33824;SDS011;20127;48.962;8.342;2024-02-28T06:12:46;68.30;;;38.33;;
33824;SDS011;20127;48.962;8.342;2024-02-28T06:14:00;66.55;;;39.88;;
33824;SDS011;20127;48.962;8.342;2024-02-28T06:15:15;62.08;;;37.67;;
33824;SDS011;20127;48.962;8.342;2024-02-28T06:16:30;64.70;;;38.05;;
33824;SDS011;20127;48.962;8.342;2024-02-28T06:17:43;69.07;;;41.05;;
33824;SDS011;20127;48.962;8.342;2024-02-28T06:18:58;60.10;;;38.15;;
33824;SDS011;20127;48.962;8.342;2024-02-28T06:20:11;66.25;;;39.38;;
33824;SDS011;20127;48.962;8.342;2024-02-28T06:21:26;56.33;;;36.42;;
33824;SDS011;20127;48.962;8.342;2024-02-28T06:22:39;65.20;;;39.25;;
33824;SDS011;20127;48.962;8.342;2024-02-28T06:23:55;64.13;;;38.35;;
33824;SDS011;20127;48.962;8.342;2024-02-28T06:25:09;61.13;;;38.78;;
33824;SDS011;20127;48.962;8.342;2024-02-28T06:26:31;64.60;;;39.38;;
33824;SDS011;20127;48.962;8.342;2024-02-28T06:27:44;66.28;;;41.20;;
33824;SDS011;20127;48.962;8.342;2024-02-28T06:28:59;60.53;;;36.85;;
33824;SDS011;20127;48.962;8.342;2024-02-28T06:30:15;68.78;;;39.88;;
33824;SDS011;20127;48.962;8.342;2024-02-28T06:31:31;60.58;;;38.40;;
33824;SDS011;20127;48.962;8.342;2024-02-28T06:32:45;74.43;;;44.95;;
33824;SDS011;20127;48.962;8.342;2024-02-28T06:33:59;64.00;;;38.00;;
33824;SDS011;20127;48.962;8.342;2024-02-28T06:35:13;61.20;;;40.15;;
33824;SDS011;20127;48.962;8.342;2024-02-28T06:36:27;63.20;;;38.20;;
33824;SDS011;20127;48.962;8.342;2024-02-28T06:37:41;69.10;;;39.03;;
33824;SDS011;20127;48.962;8.342;2024-02-28T06:38:58;68.93;;;40.78;;
33824;SDS011;20127;48.962;8.342;2024-02-28T06:40:12;67.47;;;40.47;;
33824;SDS011;20127;48.962;8.342;2024-02-28T06:41:27;64.57;;;39.72;;
33824;SDS011;20127;48.962;8.342;2024-02-28T06:42:40;65.90;;;38.65;;
33824;SDS011;20127;48.962;8.342;2024-02-28T06:43:55;66.00;;;39.58;;
33824;SDS011;20127;48.962;8.342;2024-02-28T06:45:08;68.90;;;40.40;;
33824;SDS011;20127;48.962;8.342;2024-02-28T06:46:23;68.60;;;42.70;;
33824;SDS011;20127;48.962;8.342;2024-02-28T06:47:36;65.90;;;38.03;;
33824;SDS011;20127;48.962;8.342;2024-02-28T06:48:51;64.28;;;39.83;;
33824;SDS011;20127;48.962;8.342;2024-02-28T06:50:05;70.93;;;40.72;;
33824;SDS011;20127;48.962;8.342;2024-02-28T06:51:20;75.40;;;43.10;;
33824;SDS011;20127;48.962;8.342;2024-02-28T06:52:34;70.75;;;41.05;;
33824;SDS011;20127;48.962;8.342;2024-02-28T06:53:48;70.38;;;41.28;;
33824;SDS011;20127;48.962;8.342;2024-02-28T06:55:04;66.65;;;39.63;;
33824;SDS011;20127;48.962;8.342;2024-02-28T06:56:23;65.15;;;41.88;;
33824;SDS011;20127;48.962;8.342;2024-02-28T06:57:36;72.90;;;43.67;;
33824;SDS011;20127;48.962;8.342;2024-02-28T06:58:51;67.90;;;40.22;;
33824;SDS011;20127;48.962;8.342;2024-02-28T07:00:05;76.07;;;45.45;;
33824;SDS011;20127;48.962;8.342;2024-02-28T07:01:21;75.70;;;43.53;;
33824;SDS011;20127;48.962;8.342;2024-02-28T07:02:35;71.38;;;41.03;;
33824;SDS011;20127;48.962;8.342;2024-02-28T07:03:49;67.55;;;41.30;;
33824;SDS011;20127;48.962;8.342;2024-02-28T07:05:03;79.68;;;43.42;;
33824;SDS011;20127;48.962;8.342;2024-02-28T07:06:19;71.28;;;43.30;;
33824;SDS011;20127;48.962;8.342;2024-02-28T07:07:33;75.15;;;44.78;;
33824;SDS011;20127;48.962;8.342;2024-02-28T07:08:48;74.95;;;44.47;;
33824;SDS011;20127;48.962;8.342;2024-02-28T07:10:04;80.25;;;46.20;;
33824;SDS011;20127;48.962;8.342;2024-02-28T07:11:19;75.93;;;43.40;;
33824;SDS011;20127;48.962;8.342;2024-02-28T07:12:32;84.80;;;47.55;;
33824;SDS011;20127;48.962;8.342;2024-02-28T07:13:47;65.43;;;41.58;;